Time;durP1;ratioP1;P1;durP2;ratioP2;P2;SDS_P1;SDS_P2;PMS_P1;PMS_P2;Temp;Humidity;BMP_temperature;BMP_pressure;BME280_temperature;BME280_humidity;BME280_pressure;Samples;Min_cycle;Max_cycle;Signal;HPM_P1;HPM_P2
2022/10/31 00:01:13;;;;;;;230.47;182.40;;;;;;;11.68;100.00;101797.13;5053033;28;20489;-46
2022/10/31 00:03:41;;;;;;;170.60;162.00;;;;;;;11.65;100.00;101793.78;5053090;28;20443;-47
2022/10/31 00:06:08;;;;;;;176.63;167.97;;;;;;;11.64;100.00;101800.16;5052965;28;20485;-45
2022/10/31 00:08:36;;;;;;;197.13;182.80;;;;;;;11.61;100.00;101802.34;5052483;28;20533;-45
2022/10/31 00:11:09;;;;;;;189.33;178.80;;;;;;;11.60;100.00;101817.56;5052930;28;20509;-50
2022/10/31 00:13:37;;;;;;;247.13;193.30;;;;;;;11.57;100.00;101815.22;5052921;28;20438;-45
2022/10/31 00:16:05;;;;;;;213.93;191.10;;;;;;;11.54;100.00;101807.56;5052894;28;20840;-50
2022/10/31 00:18:33;;;;;;;188.43;176.67;;;;;;;11.51;100.00;101807.94;5052620;28;20798;-46
2022/10/31 00:21:01;;;;;;;195.27;182.73;;;;;;;11.47;100.00;101811.94;5048143;28;20492;-46
2022/10/31 00:23:29;;;;;;;193.37;181.50;;;;;;;11.44;100.00;101812.28;5045151;28;20439;-45
2022/10/31 00:26:01;;;;;;;246.77;205.63;;;;;;;11.38;100.00;101818.34;5052727;28;20569;-45
2022/10/31 00:28:31;;;;;;;186.20;178.90;;;;;;;11.37;100.00;101806.00;5052029;28;20478;-45
2022/10/31 00:31:00;;;;;;;243.17;207.10;;;;;;;11.32;100.00;101804.88;5052451;28;20427;-46
2022/10/31 00:33:29;;;;;;;223.93;204.60;;;;;;;11.29;100.00;101811.38;5052368;28;20435;-48
2022/10/31 00:35:57;;;;;;;195.87;184.53;;;;;;;11.28;100.00;101799.06;5052294;28;20431;-49
2022/10/31 00:38:24;;;;;;;184.30;176.50;;;;;;;11.26;100.00;101809.06;5052171;28;20471;-46
2022/10/31 00:40:52;;;;;;;183.10;175.30;;;;;;;11.26;100.00;101810.94;5052244;28;20431;-45
2022/10/31 00:43:19;;;;;;;202.17;188.83;;;;;;;11.23;100.00;101817.41;5052579;28;20778;-47
2022/10/31 00:45:48;;;;;;;194.80;185.17;;;;;;;11.22;100.00;101813.09;5052338;28;20435;-48
2022/10/31 00:48:16;;;;;;;196.47;185.87;;;;;;;11.21;100.00;101807.94;5051559;28;20525;-45
2022/10/31 00:50:43;;;;;;;189.60;181.70;;;;;;;11.21;100.00;101816.78;5052202;28;20435;-46
2022/10/31 00:53:11;;;;;;;191.37;182.90;;;;;;;11.20;100.00;101816.97;5052377;28;20439;-47
2022/10/31 00:55:38;;;;;;;218.73;197.63;;;;;;;11.21;100.00;101822.13;5052203;28;20439;-46
2022/10/31 00:58:06;;;;;;;212.07;196.93;;;;;;;11.22;100.00;101822.94;5050865;28;20501;-46
2022/10/31 01:00:34;;;;;;;198.13;187.03;;;;;;;11.22;100.00;101818.44;5052048;28;20466;-45
2022/10/31 01:03:03;;;;;;;197.60;187.20;;;;;;;11.24;100.00;101813.75;5052093;28;20840;-45
2022/10/31 01:05:31;;;;;;;201.50;190.73;;;;;;;11.26;100.00;101811.72;5051870;28;20500;-46
2022/10/31 01:07:59;;;;;;;194.27;185.67;;;;;;;11.31;100.00;101816.56;5050783;28;20467;-49
2022/10/31 01:10:27;;;;;;;195.93;186.97;;;;;;;11.35;100.00;101817.88;5051574;28;20475;-48
2022/10/31 01:12:54;;;;;;;198.77;189.10;;;;;;;11.39;100.00;101819.19;5051953;28;20489;-46
2022/10/31 01:15:23;;;;;;;200.50;189.87;;;;;;;11.43;100.00;101815.16;5051790;28;20431;-49
2022/10/31 01:17:51;;;;;;;201.40;190.20;;;;;;;11.47;100.00;101811.09;5050814;28;20475;-46
2022/10/31 01:20:20;;;;;;;208.33;196.80;;;;;;;11.49;100.00;101819.81;5047958;28;20432;-47
2022/10/31 01:22:47;;;;;;;204.53;191.90;;;;;;;11.49;100.00;101823.31;5043270;28;20439;-48
2022/10/31 01:25:15;;;;;;;204.30;190.90;;;;;;;11.49;100.00;101834.00;5051762;28;20962;-46
2022/10/31 01:27:42;;;;;;;207.40;194.60;;;;;;;11.50;100.00;101840.13;5050281;28;20536;-47
2022/10/31 01:30:11;;;;;;;191.73;182.13;;;;;;;11.52;100.00;101840.81;5051761;28;20462;-47
2022/10/31 01:32:39;;;;;;;196.17;185.67;;;;;;;11.57;100.00;101835.78;5051363;28;20983;-51
2022/10/31 01:35:07;;;;;;;192.90;182.77;;;;;;;11.60;100.00;101838.94;5051703;28;20502;-49
2022/10/31 01:37:36;;;;;;;205.03;192.93;;;;;;;11.66;100.00;101846.22;5050204;28;20455;-47
2022/10/31 01:40:04;;;;;;;194.70;183.87;;;;;;;11.74;100.00;101844.56;5051591;28;20497;-47
2022/10/31 01:42:32;;;;;;;193.40;184.27;;;;;;;11.82;100.00;101849.84;5051225;28;20439;-48
2022/10/31 01:45:01;;;;;;;198.83;187.60;;;;;;;11.88;100.00;101847.28;5051712;28;20431;-51
2022/10/31 01:47:38;;;;;;;199.37;188.67;;;;;;;11.96;100.00;101846.38;5050015;28;20883;-46
2022/10/31 01:50:13;;;;;;;204.13;190.47;;;;;;;12.02;100.00;101843.00;5051453;28;20471;-46
2022/10/31 01:52:45;;;;;;;194.23;183.40;;;;;;;12.07;100.00;101848.63;5051136;28;20430;-47
2022/10/31 01:55:19;;;;;;;195.30;184.80;;;;;;;12.09;100.00;101855.50;5051657;28;20481;-46
2022/10/31 01:57:51;;;;;;;199.20;188.10;;;;;;;12.10;100.00;101857.13;5050132;28;20455;-47
2022/10/31 02:00:20;;;;;;;206.63;195.17;;;;;;;12.08;100.00;101856.50;5051536;28;20466;-46
2022/10/31 02:02:50;;;;;;;207.50;195.67;;;;;;;12.06;100.00;101860.34;5051292;28;20458;-49
2022/10/31 02:05:22;;;;;;;201.13;190.90;;;;;;;12.01;100.00;101865.38;5051228;28;20424;-45
2022/10/31 02:07:58;;;;;;;207.77;194.67;;;;;;;11.98;100.00;101861.22;5050139;28;20459;-47
2022/10/31 02:10:25;;;;;;;198.90;187.93;;;;;;;11.97;100.00;101856.09;5051363;28;20532;-48
2022/10/31 02:12:56;;;;;;;201.37;189.47;;;;;;;11.97;100.00;101864.09;5051156;28;20999;-49
2022/10/31 02:15:24;;;;;;;211.23;198.00;;;;;;;11.98;100.00;101865.75;5051784;28;20427;-51
2022/10/31 02:17:52;;;;;;;199.53;188.50;;;;;;;11.99;100.00;101875.44;5050069;28;20463;-47
2022/10/31 02:20:22;;;;;;;212.53;198.33;;;;;;;12.02;100.00;101883.09;5047518;28;20431;-48
2022/10/31 02:23:34;;;;;;;217.90;203.63;;;;;;;12.04;100.00;101879.25;5045196;28;20466;-50
2022/10/31 02:26:27;;;;;;;206.80;195.40;;;;;;;12.06;100.00;101877.25;4991320;28;20431;-50
2022/10/31 02:29:21;;;;;;;194.93;184.03;;;;;;;12.09;100.00;101882.22;5054352;28;20493;-46
2022/10/31 02:32:01;;;;;;;206.23;194.00;;;;;;;12.10;100.00;101878.53;5054684;28;20837;-45
2022/10/31 02:34:37;;;;;;;200.80;188.20;;;;;;;12.12;100.00;101892.56;5054741;28;20430;-48
2022/10/31 02:37:12;;;;;;;198.97;187.03;;;;;;;12.14;100.00;101887.84;5054942;28;20451;-48
2022/10/31 02:39:46;;;;;;;201.77;190.13;;;;;;;12.14;100.00;101879.84;5054378;28;20466;-49
2022/10/31 02:42:22;;;;;;;215.80;201.43;;;;;;;12.12;100.00;101886.38;5054578;28;20479;-48
2022/10/31 02:44:53;;;;;;;203.47;189.83;;;;;;;12.08;100.00;101885.06;5054502;28;20480;-48
2022/10/31 02:47:27;;;;;;;202.87;188.90;;;;;;;12.02;100.00;101883.94;5053995;28;20860;-46
2022/10/31 02:49:58;;;;;;;207.77;194.53;;;;;;;11.96;100.00;101886.47;5054572;28;20474;-46
2022/10/31 02:52:28;;;;;;;190.70;180.20;;;;;;;11.90;100.00;101892.53;5054333;28;20553;-50
2022/10/31 02:54:55;;;;;;;198.30;186.10;;;;;;;11.84;100.00;101895.91;5054372;28;21006;-46
2022/10/31 02:57:26;;;;;;;194.07;181.53;;;;;;;11.77;100.00;101898.47;5053615;28;20493;-49
2022/10/31 03:00:07;;;;;;;212.30;193.10;;;;;;;11.72;100.00;101895.50;5054695;28;20485;-47
2022/10/31 03:02:47;;;;;;;190.97;179.80;;;;;;;11.65;100.00;101889.97;5054156;28;20481;-46
2022/10/31 03:05:33;;;;;;;200.43;186.93;;;;;;;11.60;100.00;101895.03;5054184;28;20419;-49
2022/10/31 03:08:07;;;;;;;191.17;179.60;;;;;;;11.56;100.00;101895.53;5053573;28;20467;-50
2022/10/31 03:10:41;;;;;;;200.83;185.63;;;;;;;11.53;100.00;101895.88;5054101;28;20532;-49
2022/10/31 03:13:11;;;;;;;196.87;183.77;;;;;;;11.48;100.00;101898.25;5054069;28;20488;-48
2022/10/31 03:15:44;;;;;;;195.43;178.33;;;;;;;11.45;100.00;101894.09;5054026;28;20431;-45
2022/10/31 03:18:18;;;;;;;219.90;175.83;;;;;;;11.43;100.00;101900.63;5053402;28;20467;-49
2022/10/31 03:20:49;;;;;;;571.87;221.20;;;;;;;11.40;100.00;101901.81;5049887;28;20431;-46
2022/10/31 03:23:20;;;;;;;191.03;171.30;;;;;;;11.40;100.00;101901.81;5045692;28;20465;-46
2022/10/31 03:25:49;;;;;;;227.07;170.63;;;;;;;11.37;100.00;101896.81;5053859;28;20423;-46
2022/10/31 03:28:22;;;;;;;370.40;192.20;;;;;;;11.36;100.00;101905.00;5053846;28;20601;-48
2022/10/31 03:30:52;;;;;;;449.17;201.13;;;;;;;11.35;100.00;101906.03;5053345;28;20471;-51
2022/10/31 03:33:27;;;;;;;402.87;190.43;;;;;;;11.33;100.00;101913.34;5053464;28;20435;-50
2022/10/31 03:35:59;;;;;;;373.47;186.63;;;;;;;11.32;100.00;101917.03;5053755;28;20427;-50
2022/10/31 03:38:27;;;;;;;383.13;187.70;;;;;;;11.31;100.00;101916.22;5053322;28;20490;-52
2022/10/31 03:40:58;;;;;;;276.73;175.80;;;;;;;11.31;100.00;101931.41;5053530;28;20486;-48
2022/10/31 03:43:31;;;;;;;430.10;196.80;;;;;;;11.31;100.00;101936.72;5053671;28;20482;-49
2022/10/31 03:45:58;;;;;;;613.17;243.73;;;;;;;11.31;100.00;101931.41;5053392;28;20843;-46
2022/10/31 03:48:28;;;;;;;522.70;220.13;;;;;;;11.30;100.00;101935.06;5053175;28;20467;-47
2022/10/31 03:51:05;;;;;;;237.80;167.80;;;;;;;11.29;100.00;101942.22;5053023;28;20521;-51
2022/10/31 03:53:37;;;;;;;256.40;176.80;;;;;;;11.28;100.00;101943.25;5053186;28;20708;-50
2022/10/31 03:56:10;;;;;;;388.00;196.60;;;;;;;11.27;100.00;101951.41;5053392;28;20481;-49
2022/10/31 03:58:46;;;;;;;566.90;223.17;;;;;;;11.26;100.00;101952.44;5052826;28;20467;-49
2022/10/31 04:01:17;;;;;;;552.77;216.90;;;;;;;11.25;100.00;101961.44;5052905;28;20504;-47
2022/10/31 04:03:47;;;;;;;583.20;218.27;;;;;;;11.24;100.00;101965.13;5053033;28;20497;-48
2022/10/31 04:06:17;;;;;;;494.27;207.87;;;;;;;11.22;100.00;101964.47;5052820;28;20431;-46
2022/10/31 04:08:50;;;;;;;439.97;199.20;;;;;;;11.21;100.00;101971.63;5052698;28;20462;-48
2022/10/31 04:11:22;;;;;;;519.50;208.80;;;;;;;11.20;100.00;101969.16;5052588;28;21016;-46
2022/10/31 04:13:51;;;;;;;521.77;210.73;;;;;;;11.21;100.00;101978.81;5052910;28;20431;-45
2022/10/31 04:16:20;;;;;;;454.13;196.80;;;;;;;11.22;100.00;101975.97;5052752;28;20515;-51
2022/10/31 04:18:49;;;;;;;268.57;167.47;;;;;;;11.23;100.00;101980.31;5052369;28;20463;-50
2022/10/31 04:21:17;;;;;;;642.77;227.30;;;;;;;11.26;100.00;101984.50;5046106;28;20940;-51
2022/10/31 04:23:44;;;;;;;305.10;163.30;;;;;;;11.27;100.00;101988.81;5047122;28;20439;-45
2022/10/31 04:26:13;;;;;;;304.97;161.10;;;;;;;11.29;100.00;101986.81;5052638;28;20505;-48
2022/10/31 04:28:40;;;;;;;274.63;157.80;;;;;;;11.30;100.00;101991.13;5052108;28;20520;-46
2022/10/31 04:31:11;;;;;;;435.40;185.03;;;;;;;11.31;100.00;101996.31;5052123;28;20467;-47
2022/10/31 04:33:38;;;;;;;440.37;179.10;;;;;;;11.31;100.00;101996.31;5052985;28;20481;-47
2022/10/31 04:36:08;;;;;;;434.30;174.07;;;;;;;11.31;100.00;101992.81;5052621;28;20485;-48
2022/10/31 04:38:35;;;;;;;411.20;167.87;;;;;;;11.31;100.00;101988.31;5052040;28;20517;-47
2022/10/31 04:41:03;;;;;;;245.53;149.30;;;;;;;11.31;100.00;101990.97;5052147;28;20424;-47
2022/10/31 04:43:31;;;;;;;365.30;165.27;;;;;;;11.30;100.00;101994.66;5052438;28;20994;-48
2022/10/31 04:45:58;;;;;;;426.90;172.40;;;;;;;11.30;100.00;101991.13;5051518;28;20440;-47
2022/10/31 04:48:26;;;;;;;425.53;171.03;;;;;;;11.28;100.00;101996.66;5051944;28;20463;-47
2022/10/31 04:50:53;;;;;;;633.40;200.17;;;;;;;11.28;100.00;101994.00;5052069;28;20524;-50
2022/10/31 04:53:22;;;;;;;227.27;145.93;;;;;;;11.27;100.00;101988.81;5052272;28;20859;-48
2022/10/31 04:55:50;;;;;;;550.47;189.13;;;;;;;11.26;100.00;101989.84;5052056;28;20435;-46
2022/10/31 04:58:17;;;;;;;208.63;146.60;;;;;;;11.26;100.00;101979.16;5051458;28;20471;-48
2022/10/31 05:00:45;;;;;;;369.90;160.33;;;;;;;11.25;100.00;101985.47;5052095;28;20493;-49
2022/10/31 05:03:13;;;;;;;416.40;166.17;;;;;;;11.23;100.00;101980.31;5052122;28;20439;-45
2022/10/31 05:05:40;;;;;;;473.50;174.20;;;;;;;11.22;100.00;101985.81;5051872;28;20481;-50
2022/10/31 05:08:08;;;;;;;178.77;142.87;;;;;;;11.21;100.00;101987.66;5051585;28;20474;-46
2022/10/31 05:10:37;;;;;;;400.80;164.53;;;;;;;11.19;100.00;101984.34;5051692;28;20475;-45
2022/10/31 05:13:05;;;;;;;151.83;137.53;;;;;;;11.19;100.00;101988.84;5051856;28;20498;-47
2022/10/31 05:15:33;;;;;;;212.07;138.80;;;;;;;11.19;100.00;101992.34;5051731;28;20473;-46
2022/10/31 05:18:01;;;;;;;207.33;138.87;;;;;;;11.20;100.00;101991.31;5051414;28;20471;-53
2022/10/31 05:20:31;;;;;;;483.27;177.07;;;;;;;11.21;100.00;101992.16;5047601;28;20515;-47
2022/10/31 05:22:59;;;;;;;562.83;189.93;;;;;;;11.22;100.00;101994.69;5043209;28;20427;-48
2022/10/31 05:25:29;;;;;;;357.33;159.93;;;;;;;11.23;100.00;101996.31;5051868;28;20847;-53
2022/10/31 05:27:58;;;;;;;253.20;144.63;;;;;;;11.24;100.00;101995.31;5051297;28;20459;-50
2022/10/31 05:30:29;;;;;;;424.27;166.20;;;;;;;11.24;100.00;102000.66;5051402;28;20423;-48
2022/10/31 05:32:57;;;;;;;415.93;163.03;;;;;;;11.23;100.00;101993.66;5051510;28;20489;-51
2022/10/31 05:35:27;;;;;;;395.80;157.50;;;;;;;11.22;100.00;101989.34;5051634;28;20439;-48
2022/10/31 05:37:54;;;;;;;789.13;218.70;;;;;;;11.21;100.00;101993.00;5051136;28;20471;-47
2022/10/31 05:40:22;;;;;;;410.33;161.13;;;;;;;11.22;100.00;101993.84;5051735;28;20492;-49
2022/10/31 05:42:52;;;;;;;253.63;145.07;;;;;;;11.23;100.00;101998.19;5051335;28;20435;-51
2022/10/31 05:45:22;;;;;;;208.13;139.70;;;;;;;11.23;100.00;101999.00;5051548;28;20435;-45
2022/10/31 05:47:53;;;;;;;451.50;174.07;;;;;;;11.23;100.00;102007.00;5050947;28;20463;-46
2022/10/31 05:50:21;;;;;;;475.67;176.10;;;;;;;11.22;100.00;102007.19;5051314;28;20435;-48
2022/10/31 05:52:55;;;;;;;370.83;159.97;;;;;;;11.22;100.00;102009.84;5051293;28;20533;-48
2022/10/31 05:55:23;;;;;;;204.53;138.20;;;;;;;11.22;100.00;102007.19;5051489;28;20533;-49
2022/10/31 05:57:51;;;;;;;222.33;139.00;;;;;;;11.22;100.00;102004.50;5055064;28;20524;-48
2022/10/31 06:00:19;;;;;;;495.80;167.83;;;;;;;11.22;100.00;102005.34;5055450;28;20924;-47
2022/10/31 06:02:48;;;;;;;701.13;198.20;;;;;;;11.22;100.00;102004.50;5055014;28;20489;-49
2022/10/31 06:05:16;;;;;;;548.57;170.50;;;;;;;11.22;100.00;102004.50;5055531;28;20435;-49
2022/10/31 06:07:44;;;;;;;235.00;136.07;;;;;;;11.22;100.00;102016.03;5054961;28;20470;-47
2022/10/31 06:10:11;;;;;;;609.53;171.77;;;;;;;11.22;100.00;102013.38;5055256;28;20934;-48
2022/10/31 06:12:40;;;;;;;666.87;184.53;;;;;;;11.22;100.00;102005.34;5054854;28;20490;-45
2022/10/31 06:15:09;;;;;;;573.40;165.03;;;;;;;11.24;100.00;102011.34;5055104;28;20431;-51
2022/10/31 06:17:37;;;;;;;482.57;165.27;;;;;;;11.25;100.00;102010.34;5054728;28;20455;-49
2022/10/31 06:20:07;;;;;;;595.07;169.83;;;;;;;11.27;100.00;102015.50;5050831;28;20440;-46
2022/10/31 06:22:35;;;;;;;134.87;121.30;;;;;;;11.29;100.00;102016.19;5046603;28;20431;-48
2022/10/31 06:25:03;;;;;;;125.90;115.30;;;;;;;11.32;100.00;102018.53;5055021;28;20427;-46
2022/10/31 06:27:30;;;;;;;476.13;153.97;;;;;;;11.32;100.00;102027.34;5054332;28;20806;-46
2022/10/31 06:29:58;;;;;;;475.13;161.53;;;;;;;11.33;100.00;102018.34;5055043;28;20907;-51
2022/10/31 06:32:26;;;;;;;470.03;158.83;;;;;;;11.34;100.00;102012.00;5054463;28;20471;-45
2022/10/31 06:34:53;;;;;;;124.67;113.17;;;;;;;11.34;100.00;102021.84;5055104;28;20435;-50
2022/10/31 06:37:22;;;;;;;472.83;152.10;;;;;;;11.35;100.00;102023.53;5054177;28;21041;-47
2022/10/31 06:39:50;;;;;;;119.30;109.33;;;;;;;11.36;100.00;102025.16;5054714;28;20774;-53
2022/10/31 06:42:17;;;;;;;322.97;136.33;;;;;;;11.36;100.00;102033.19;5054269;28;20997;-48
2022/10/31 06:44:45;;;;;;;248.83;124.67;;;;;;;11.38;100.00;102026.66;5054941;28;20439;-48
2022/10/31 06:47:13;;;;;;;267.27;125.97;;;;;;;11.41;100.00;102036.19;5053458;28;20459;-48
2022/10/31 06:49:40;;;;;;;478.00;144.20;;;;;;;11.44;100.00;102041.19;5054134;28;20471;-48
2022/10/31 06:52:08;;;;;;;310.47;122.07;;;;;;;11.47;100.00;102052.34;5054143;28;20536;-49
2022/10/31 06:54:37;;;;;;;184.53;107.17;;;;;;;11.52;100.00;102049.19;5054448;28;20681;-47
2022/10/31 06:57:04;;;;;;;506.10;141.37;;;;;;;11.56;100.00;102055.84;5054137;28;20455;-46
2022/10/31 06:59:32;;;;;;;404.73;127.70;;;;;;;11.63;100.00;102063.00;5031643;28;20506;-45
2022/10/31 07:01:59;;;;;;;103.07;95.53;;;;;;;11.73;100.00;102067.34;5033868;28;20412;-46
2022/10/31 07:04:27;;;;;;;179.37;102.73;;;;;;;11.81;100.00;102075.34;5034050;28;20438;-48
2022/10/31 07:06:55;;;;;;;373.67;130.93;;;;;;;11.87;100.00;102077.31;5034079;28;20456;-45
2022/10/31 07:09:22;;;;;;;234.77;122.23;;;;;;;11.93;100.00;102071.28;5032903;28;20471;-47
2022/10/31 07:11:52;;;;;;;312.63;127.27;;;;;;;11.97;100.00;102084.16;5033861;28;20533;-45
2022/10/31 07:14:20;;;;;;;365.73;130.70;;;;;;;12.03;100.00;102080.78;5034018;28;21028;-46
2022/10/31 07:16:50;;;;;;;273.33;113.83;;;;;;;12.10;100.00;102079.06;5033473;28;20988;-45
2022/10/31 07:19:18;;;;;;;312.10;119.10;;;;;;;12.13;100.00;102084.06;5033446;28;20521;-45
2022/10/31 07:21:45;;;;;;;139.93;106.10;;;;;;;12.18;100.00;102088.91;5041697;28;20479;-48
2022/10/31 07:24:13;;;;;;;117.93;104.43;;;;;;;12.21;100.00;102084.00;5052013;28;20488;-48
2022/10/31 07:26:42;;;;;;;163.23;103.70;;;;;;;12.26;100.00;102085.34;5053738;28;20856;-47
2022/10/31 07:29:11;;;;;;;134.60;98.13;;;;;;;12.30;100.00;102092.03;5052714;28;20463;-46
2022/10/31 07:31:38;;;;;;;238.97;110.17;;;;;;;12.33;100.00;102097.88;5053240;28;20489;-47
2022/10/31 07:34:06;;;;;;;158.73;106.03;;;;;;;12.37;100.00;102098.31;5053566;28;20496;-45
2022/10/31 07:36:33;;;;;;;464.00;141.77;;;;;;;12.39;100.00;102090.97;5053473;28;20860;-46
2022/10/31 07:39:02;;;;;;;192.33;105.87;;;;;;;12.45;100.00;102093.78;5053056;28;20462;-45
2022/10/31 07:41:29;;;;;;;257.97;121.23;;;;;;;12.50;100.00;102094.06;5029128;28;20453;-45
2022/10/31 07:43:57;;;;;;;388.40;134.67;;;;;;;12.56;100.00;102092.53;5052570;28;20463;-48
2022/10/31 07:46:26;;;;;;;331.47;127.30;;;;;;;12.60;100.00;102102.69;5028927;28;20459;-46
2022/10/31 07:48:53;;;;;;;539.83;154.03;;;;;;;12.65;100.00;102107.53;5040160;28;20583;-46
2022/10/31 07:51:21;;;;;;;487.70;144.20;;;;;;;12.70;100.00;102110.50;5052970;28;20493;-46
2022/10/31 07:53:48;;;;;;;524.97;152.63;;;;;;;12.74;100.00;102106.47;5053245;28;20529;-46
2022/10/31 07:56:16;;;;;;;413.23;131.37;;;;;;;12.82;100.00;102109.09;5053097;28;20496;-45
2022/10/31 07:58:43;;;;;;;170.37;106.73;;;;;;;12.92;100.00;102112.38;5052452;28;20992;-45
2022/10/31 08:01:11;;;;;;;101.93;94.73;;;;;;;13.04;100.00;102116.28;5052828;28;20434;-47
2022/10/31 08:03:45;;;;;;;101.50;93.57;;;;;;;13.13;100.00;102114.41;5052906;28;20439;-45
2022/10/31 08:06:12;;;;;;;177.07;100.03;;;;;;;13.24;100.00;102112.13;5052656;28;21002;-48
2022/10/31 08:08:40;;;;;;;307.17;116.97;;;;;;;13.34;100.00;102111.06;5052470;28;20463;-46
2022/10/31 08:11:08;;;;;;;134.87;97.63;;;;;;;13.38;100.00;102120.41;5052846;28;20427;-46
2022/10/31 08:13:35;;;;;;;268.00;113.10;;;;;;;13.44;100.00;102122.34;5052171;28;20474;-45
2022/10/31 08:16:04;;;;;;;120.30;101.80;;;;;;;13.49;100.00;102123.47;5052656;28;20959;-45
2022/10/31 08:18:32;;;;;;;180.20;106.00;;;;;;;13.56;100.00;102124.38;5052023;28;20876;-49
2022/10/31 08:21:01;;;;;;;254.53;117.63;;;;;;;13.61;100.00;102122.03;5039009;28;20942;-46
2022/10/31 08:23:28;;;;;;;166.50;113.37;;;;;;;13.68;100.00;102125.59;5044916;28;20427;-47
2022/10/31 08:25:58;;;;;;;217.63;117.60;;;;;;;13.77;100.00;102135.22;5052623;28;20436;-48
2022/10/31 08:28:25;;;;;;;239.63;121.03;;;;;;;13.84;100.00;102136.19;5051676;28;20509;-50
2022/10/31 08:30:53;;;;;;;224.70;120.07;;;;;;;13.93;100.00;102136.06;5052152;28;20431;-46
2022/10/31 08:33:21;;;;;;;164.90;116.00;;;;;;;13.95;100.00;102120.66;5052553;28;20479;-50
2022/10/31 08:35:49;;;;;;;180.73;119.17;;;;;;;14.06;100.00;102126.38;5052722;28;20511;-47
2022/10/31 08:38:18;;;;;;;123.77;113.03;;;;;;;14.21;100.00;102131.72;5052116;28;20486;-47
2022/10/31 08:40:49;;;;;;;113.13;105.73;;;;;;;14.36;100.00;102129.91;5052104;28;20496;-49
2022/10/31 08:43:18;;;;;;;115.50;104.77;;;;;;;14.52;100.00;102124.28;5051937;28;20435;-48
2022/10/31 08:45:49;;;;;;;161.60;115.73;;;;;;;14.65;100.00;102123.63;5052943;28;20481;-48
2022/10/31 08:48:18;;;;;;;118.20;109.87;;;;;;;14.78;100.00;102116.53;5051988;28;20459;-49
2022/10/31 08:50:46;;;;;;;118.80;108.63;;;;;;;14.90;100.00;102115.00;5052213;28;20419;-48
2022/10/31 08:53:15;;;;;;;131.90;119.33;;;;;;;15.00;100.00;102113.84;5052138;28;20955;-46
2022/10/31 08:55:46;;;;;;;116.37;107.37;;;;;;;15.12;100.00;102106.94;5051910;28;20751;-49
2022/10/31 08:58:15;;;;;;;106.73;99.23;;;;;;;15.25;100.00;102112.44;5051504;28;20467;-51
2022/10/31 09:00:43;;;;;;;107.77;102.47;;;;;;;15.35;100.00;102103.00;5052105;28;20439;-46
2022/10/31 09:03:14;;;;;;;109.27;103.43;;;;;;;15.48;100.00;102110.38;5052017;28;20493;-47
2022/10/31 09:05:42;;;;;;;109.20;103.80;;;;;;;15.52;100.00;102108.97;5051983;28;20489;-46
2022/10/31 09:08:10;;;;;;;108.20;102.60;;;;;;;15.67;100.00;102103.47;5051311;28;20833;-46
2022/10/31 09:10:45;;;;;;;93.03;87.83;;;;;;;15.91;100.00;102103.00;5051470;28;21255;-47
2022/10/31 09:13:14;;;;;;;93.93;88.83;;;;;;;16.10;100.00;102098.78;5051752;28;20972;-48
2022/10/31 09:15:44;;;;;;;83.77;78.70;;;;;;;16.28;100.00;102090.94;5051964;28;20485;-51
2022/10/31 09:18:13;;;;;;;75.63;70.97;;;;;;;16.44;100.00;102102.22;5051482;28;20467;-51
2022/10/31 09:20:42;;;;;;;73.20;68.50;;;;;;;16.45;100.00;102094.97;5041773;28;20427;-48
2022/10/31 09:23:11;;;;;;;66.93;62.70;;;;;;;16.51;100.00;102088.78;5040057;28;20849;-48
2022/10/31 09:25:39;;;;;;;69.57;64.63;;;;;;;16.53;100.00;102094.78;5031532;28;20585;-44
2022/10/31 09:28:11;;;;;;;72.23;66.77;;;;;;;16.54;100.00;102088.41;5031297;28;20530;-43
2022/10/31 09:30:39;;;;;;;62.40;58.10;;;;;;;16.63;100.00;102084.50;5031332;28;20494;-44
2022/10/31 09:33:09;;;;;;;66.60;61.70;;;;;;;16.67;100.00;102087.59;5031294;28;20472;-49
2022/10/31 09:35:37;;;;;;;61.93;57.10;;;;;;;16.77;100.00;102078.09;5031911;28;20428;-46
2022/10/31 09:38:07;;;;;;;57.27;53.33;;;;;;;16.97;100.00;102080.78;5031165;28;20472;-46
2022/10/31 09:40:37;;;;;;;56.10;52.00;;;;;;;17.17;100.00;102088.91;5031334;28;20495;-44
2022/10/31 09:43:15;;;;;;;51.87;48.13;;;;;;;17.25;100.00;102080.59;5031747;28;20416;-49
2022/10/31 09:45:54;;;;;;;53.77;50.07;;;;;;;17.24;100.00;102089.72;5031300;28;20435;-50
2022/10/31 09:48:38;;;;;;;52.70;48.97;;;;;;;17.15;100.00;102084.53;5031216;28;20985;-46
2022/10/31 09:51:09;;;;;;;56.03;52.40;;;;;;;17.06;100.00;102088.47;5031661;28;20412;-48
2022/10/31 09:53:41;;;;;;;56.00;52.17;;;;;;;17.10;100.00;102078.94;5031381;28;20471;-48
2022/10/31 09:56:12;;;;;;;55.53;51.13;;;;;;;17.10;100.00;102086.19;5031038;28;20436;-48
2022/10/31 09:58:44;;;;;;;53.73;49.63;;;;;;;17.33;100.00;102088.47;5030999;28;20472;-48
2022/10/31 10:01:29;;;;;;;54.60;50.63;;;;;;;17.36;100.00;102085.34;5031709;28;20435;-46
2022/10/31 10:04:02;;;;;;;54.87;50.90;;;;;;;17.33;100.00;102081.22;5031552;28;20436;-46
2022/10/31 10:06:33;;;;;;;54.40;49.90;;;;;;;17.28;100.00;102088.28;5031144;28;20857;-45
2022/10/31 10:09:02;;;;;;;53.10;49.10;;;;;;;17.20;100.00;102093.88;5030658;28;20513;-44
2022/10/31 10:11:43;;;;;;;52.33;48.73;;;;;;;17.10;100.00;102095.13;5029293;28;20436;-46
2022/10/31 10:14:32;;;;;;;55.53;50.97;;;;;;;16.99;100.00;102094.91;5029368;28;20526;-45
2022/10/31 10:17:13;;;;;;;54.40;49.87;;;;;;;16.81;100.00;102092.81;5030793;28;20447;-44
2022/10/31 10:19:53;;;;;;;52.70;48.70;;;;;;;16.74;100.00;102089.28;5030519;28;20521;-44
2022/10/31 10:22:29;;;;;;;50.37;46.17;;;;;;;16.66;100.00;102094.84;5044338;28;20480;-44
2022/10/31 10:25:15;;;;;;;49.57;45.87;;;;;;;16.64;100.00;102088.00;5035077;28;20423;-46
2022/10/31 10:27:51;;;;;;;47.63;44.23;;;;;;;16.67;100.00;102088.41;5022950;28;20472;-48
2022/10/31 10:30:22;;;;;;;46.40;43.20;;;;;;;16.80;100.00;102083.06;5030909;28;20416;-46
2022/10/31 10:32:54;;;;;;;49.73;45.43;;;;;;;16.98;100.00;102088.69;5031261;28;20477;-43
2022/10/31 10:35:27;;;;;;;45.53;42.10;;;;;;;17.07;100.00;102094.69;5030809;28;20557;-46
2022/10/31 10:37:59;;;;;;;42.07;39.00;;;;;;;17.12;100.00;102089.50;5030122;28;20518;-50
2022/10/31 10:40:28;;;;;;;41.27;38.33;;;;;;;17.29;100.00;102092.63;5031127;28;20443;-45
2022/10/31 10:43:21;;;;;;;41.90;39.20;;;;;;;17.39;100.00;102090.34;5031631;28;20845;-45
2022/10/31 10:48:46;;;;;;;39.87;37.27;;;;;;;17.54;100.00;102085.53;5033914;28;20468;-46
2022/10/31 10:51:23;;;;;;;38.20;35.90;;;;;;;17.55;100.00;102084.56;5034277;28;20428;-43
2022/10/31 10:54:27;;;;;;;35.40;33.50;;;;;;;17.47;100.00;102079.34;5034006;28;20990;-47
2022/10/31 10:57:06;;;;;;;37.37;34.87;;;;;;;17.40;100.00;102078.53;5034280;28;20443;-47
2022/10/31 10:59:35;;;;;;;37.70;35.20;;;;;;;17.39;100.00;102082.25;5033543;28;20992;-48
2022/10/31 11:02:16;;;;;;;39.17;36.47;;;;;;;17.27;100.00;102078.50;5034141;28;20822;-45
2022/10/31 11:04:46;;;;;;;35.93;33.73;;;;;;;17.22;100.00;102075.63;5034360;28;20420;-47
2022/10/31 11:07:13;;;;;;;37.20;34.83;;;;;;;17.28;100.00;102078.31;5033757;28;20455;-44